Time;durP1;ratioP1;P1;durP2;ratioP2;P2;SDS_P1;SDS_P2;PMS_P1;PMS_P2;Temp;Humidity;BMP_temperature;BMP_pressure;BME280_temperature;BME280_humidity;BME280_pressure;Samples;Min_cycle;Max_cycle;Signal;HPM_P1;HPM_P2
2021/10/15 00:01:04;;;;;;;7.10;5.93;;;6.30;99.90;;;;;;5035863;28;20208;-75
2021/10/15 00:03:31;;;;;;;7.75;6.55;;;6.20;99.90;;;;;;5035334;28;20226;-75
2021/10/15 00:05:59;;;;;;;6.90;6.00;;;6.30;99.90;;;;;;5035076;28;20214;-75
2021/10/15 00:08:26;;;;;;;11.00;5.25;;;6.30;99.90;;;;;;5035280;28;20214;-75
2021/10/15 00:10:53;;;;;;;7.45;6.05;;;6.40;99.90;;;;;;5035300;28;20277;-75
2021/10/15 00:13:20;;;;;;;6.93;6.32;;;6.40;99.90;;;;;;5036166;28;20324;-74
2021/10/15 00:15:47;;;;;;;7.63;6.05;;;6.30;99.90;;;;;;5036822;28;20228;-74
2021/10/15 00:18:14;;;;;;;8.40;6.22;;;6.40;99.90;;;;;;5039907;28;20213;-74
2021/10/15 00:20:41;;;;;;;6.60;5.55;;;6.40;99.90;;;;;;5041801;28;20244;-74
2021/10/15 00:23:09;;;;;;;8.80;4.95;;;6.30;99.90;;;;;;5041790;28;20760;-75
2021/10/15 00:25:35;;;;;;;6.97;5.30;;;6.30;99.90;;;;;;5040380;28;20209;-75
2021/10/15 00:28:02;;;;;;;8.50;5.63;;;6.30;99.90;;;;;;5039086;28;20705;-74
2021/10/15 00:30:29;;;;;;;6.40;5.10;;;6.20;99.90;;;;;;5046735;28;20206;-74
2021/10/15 00:32:56;;;;;;;5.90;5.35;;;6.30;99.90;;;;;;5051871;28;20244;-74
2021/10/15 00:35:23;;;;;;;9.55;5.65;;;6.30;99.90;;;;;;5053680;28;20219;-75
2021/10/15 00:37:50;;;;;;;6.28;5.15;;;6.20;99.90;;;;;;5053559;28;20277;-75
2021/10/15 00:40:18;;;;;;;8.43;5.30;;;6.20;99.90;;;;;;5052197;28;20210;-74
2021/10/15 00:42:47;;;;;;;6.95;5.07;;;6.10;99.90;;;;;;5045229;28;20241;-75
2021/10/15 00:45:14;;;;;;;6.45;5.07;;;6.00;99.90;;;;;;5035285;28;20238;-74
2021/10/15 00:47:41;;;;;;;6.18;5.15;;;6.10;99.90;;;;;;5035315;28;20241;-74
2021/10/15 00:50:08;;;;;;;5.00;4.40;;;6.00;99.90;;;;;;5035624;28;20248;-75
2021/10/15 00:52:36;;;;;;;5.40;4.90;;;6.00;99.90;;;;;;5043245;28;20223;-73
2021/10/15 00:55:03;;;;;;;5.90;5.20;;;6.00;99.90;;;;;;5053328;28;20209;-74
2021/10/15 00:57:32;;;;;;;6.35;4.45;;;6.00;99.90;;;;;;5057157;28;20201;-75
2021/10/15 00:59:59;;;;;;;8.10;4.70;;;6.00;99.90;;;;;;5057220;28;20197;-75
2021/10/15 01:02:26;;;;;;;6.28;5.15;;;6.00;99.90;;;;;;5051979;28;20278;-75
2021/10/15 01:04:53;;;;;;;7.55;4.70;;;6.00;99.90;;;;;;5044438;28;20229;-74
2021/10/15 01:07:20;;;;;;;6.93;4.88;;;5.90;99.90;;;;;;5038882;28;20216;-74
2021/10/15 01:09:47;;;;;;;5.88;4.75;;;5.90;99.90;;;;;;5038066;28;20296;-74
2021/10/15 01:12:15;;;;;;;8.27;5.88;;;5.90;99.90;;;;;;5037799;28;20235;-74
2021/10/15 01:14:43;;;;;;;5.60;5.00;;;5.90;99.90;;;;;;5037835;28;20268;-74
2021/10/15 01:17:10;;;;;;;7.65;5.03;;;5.90;99.90;;;;;;5037501;28;20747;-74
2021/10/15 01:19:37;;;;;;;7.40;5.07;;;5.80;99.90;;;;;;5038301;28;20268;-75
2021/10/15 01:22:07;;;;;;;5.82;4.97;;;5.80;99.90;;;;;;5038076;28;20210;-74
2021/10/15 01:24:36;;;;;;;8.27;5.75;;;5.80;99.90;;;;;;5036184;28;20302;-74
2021/10/15 01:27:05;;;;;;;6.10;4.82;;;5.80;99.90;;;;;;5035353;28;20623;-74
2021/10/15 01:29:32;;;;;;;8.20;5.53;;;5.80;99.90;;;;;;5035330;28;20627;-74
2021/10/15 01:31:59;;;;;;;8.02;5.53;;;5.90;99.90;;;;;;5035395;28;20236;-74
2021/10/15 01:34:26;;;;;;;6.68;5.30;;;5.90;99.90;;;;;;5035670;28;20284;-74
2021/10/15 01:36:53;;;;;;;6.28;5.68;;;5.80;99.90;;;;;;5034622;28;20301;-74
2021/10/15 01:39:21;;;;;;;6.68;5.85;;;5.80;99.90;;;;;;5033438;28;20224;-74
2021/10/15 01:41:48;;;;;;;7.03;5.32;;;5.70;99.90;;;;;;5034078;28;20216;-74
2021/10/15 01:44:16;;;;;;;8.15;5.35;;;5.70;99.90;;;;;;5033669;28;20248;-75
2021/10/15 01:46:43;;;;;;;7.22;5.70;;;5.70;99.90;;;;;;5034543;28;20689;-74
2021/10/15 01:49:15;;;;;;;6.97;5.32;;;5.70;99.90;;;;;;5033788;28;20216;-75
2021/10/15 01:51:42;;;;;;;5.75;4.90;;;5.70;99.90;;;;;;5033967;28;20485;-75
2021/10/15 01:54:09;;;;;;;6.72;5.28;;;5.70;99.90;;;;;;5034448;28;20272;-74
2021/10/15 01:56:38;;;;;;;5.95;5.40;;;5.60;99.90;;;;;;5034260;28;20650;-74
2021/10/15 01:59:05;;;;;;;7.20;5.70;;;5.60;99.90;;;;;;5048019;28;20280;-75
2021/10/15 02:01:32;;;;;;;5.72;5.13;;;5.50;99.90;;;;;;5055456;28;20214;-74
2021/10/15 02:03:59;;;;;;;7.85;5.18;;;5.50;99.90;;;;;;5055663;28;20233;-74
2021/10/15 02:06:26;;;;;;;6.38;5.30;;;5.50;99.90;;;;;;5046485;28;20218;-74
2021/10/15 02:08:53;;;;;;;5.90;5.28;;;5.50;99.90;;;;;;5056173;28;20253;-74
2021/10/15 02:11:20;;;;;;;5.13;4.63;;;5.60;99.90;;;;;;5056514;28;20228;-74
2021/10/15 02:13:48;;;;;;;8.27;5.20;;;5.50;99.90;;;;;;5056577;28;20233;-74
2021/10/15 02:16:17;;;;;;;6.13;5.10;;;5.50;99.90;;;;;;5056661;28;20205;-75
2021/10/15 02:18:43;;;;;;;7.55;5.75;;;5.40;99.90;;;;;;5042078;28;20299;-75
2021/10/15 02:21:10;;;;;;;7.57;5.68;;;5.50;99.90;;;;;;5039827;28;20685;-74
2021/10/15 02:23:39;;;;;;;6.28;5.63;;;5.50;99.90;;;;;;5039677;28;20225;-75
2021/10/15 02:26:07;;;;;;;7.28;5.63;;;5.50;99.90;;;;;;5040182;28;20256;-75
2021/10/15 02:28:33;;;;;;;6.75;5.75;;;5.50;99.90;;;;;;5037965;28;20325;-75
2021/10/15 02:31:02;;;;;;;7.35;5.85;;;5.50;99.90;;;;;;5037616;28;20209;-75
2021/10/15 02:33:28;;;;;;;7.13;5.85;;;5.40;99.90;;;;;;5037355;28;20237;-75
2021/10/15 02:35:55;;;;;;;7.13;5.28;;;5.40;99.90;;;;;;5037360;28;20231;-75
2021/10/15 02:38:22;;;;;;;6.20;5.55;;;5.40;99.90;;;;;;5050210;28;20273;-75
2021/10/15 02:40:49;;;;;;;6.00;5.40;;;5.40;99.90;;;;;;5058802;28;20656;-74
2021/10/15 02:43:16;;;;;;;7.43;5.60;;;5.40;99.90;;;;;;5056720;28;20291;-75
2021/10/15 02:45:43;;;;;;;9.15;5.60;;;5.40;99.90;;;;;;5049263;28;20211;-74
2021/10/15 02:48:11;;;;;;;6.15;5.55;;;5.30;99.90;;;;;;5057463;28;20229;-75
2021/10/15 02:50:39;;;;;;;7.85;5.20;;;5.30;99.90;;;;;;5059086;28;20335;-74
2021/10/15 02:53:06;;;;;;;7.93;6.05;;;5.30;99.90;;;;;;5059658;28;20226;-75
2021/10/15 02:55:33;;;;;;;6.18;5.35;;;5.30;99.90;;;;;;5055659;28;20237;-75
2021/10/15 02:57:59;;;;;;;8.13;7.05;;;5.30;99.90;;;;;;5054984;28;20210;-74
2021/10/15 03:00:26;;;;;;;5.00;4.45;;;5.20;99.90;;;;;;5042857;28;20673;-75
2021/10/15 03:02:55;;;;;;;7.07;4.82;;;5.30;99.90;;;;;;5037848;28;20210;-74
2021/10/15 03:05:23;;;;;;;5.65;4.68;;;5.20;99.90;;;;;;5037454;28;20216;-74
2021/10/15 03:07:50;;;;;;;6.47;4.97;;;5.20;99.90;;;;;;5037904;28;20245;-74
2021/10/15 03:10:17;;;;;;;5.97;5.10;;;5.20;99.90;;;;;;5048750;28;20214;-74
2021/10/15 03:12:43;;;;;;;5.78;4.75;;;5.10;99.90;;;;;;5058501;28;20229;-75
2021/10/15 03:15:10;;;;;;;6.35;4.57;;;5.10;99.90;;;;;;5059402;28;20226;-75
2021/10/15 03:17:37;;;;;;;5.75;4.75;;;5.10;99.90;;;;;;5054319;28;20264;-73
2021/10/15 03:20:05;;;;;;;7.40;5.68;;;5.10;99.90;;;;;;5048977;28;20215;-74
2021/10/15 03:22:34;;;;;;;4.82;4.10;;;5.20;99.90;;;;;;5035976;28;20310;-74
2021/10/15 03:25:01;;;;;;;6.47;4.95;;;5.10;99.90;;;;;;5036414;28;20317;-75
2021/10/15 03:27:28;;;;;;;6.40;4.63;;;5.10;99.90;;;;;;5036191;28;20311;-75
2021/10/15 03:29:54;;;;;;;6.43;4.70;;;5.20;99.90;;;;;;5035078;28;20745;-75
2021/10/15 03:32:22;;;;;;;5.28;4.75;;;5.20;99.90;;;;;;5035564;28;20209;-76
2021/10/15 03:34:48;;;;;;;4.95;4.43;;;5.30;99.90;;;;;;5035593;28;20605;-74
2021/10/15 03:37:15;;;;;;;6.82;5.13;;;5.20;99.90;;;;;;5035283;28;20220;-74
2021/10/15 03:39:44;;;;;;;7.13;4.75;;;5.20;99.90;;;;;;5034847;28;20213;-75
2021/10/15 03:42:11;;;;;;;6.10;4.70;;;5.20;99.90;;;;;;5035255;28;20304;-75
2021/10/15 03:44:38;;;;;;;7.35;5.00;;;5.20;99.90;;;;;;5059377;22;20229;-77
2021/10/15 03:47:05;;;;;;;7.03;4.57;;;5.20;99.90;;;;;;5056435;28;20299;-77
2021/10/15 03:49:32;;;;;;;5.45;4.85;;;5.20;99.90;;;;;;5060155;28;20731;-78
2021/10/15 03:51:59;;;;;;;4.90;4.03;;;5.30;99.90;;;;;;5062374;28;20312;-77
2021/10/15 03:54:26;;;;;;;7.05;4.03;;;5.30;99.90;;;;;;5067288;28;20300;-77
2021/10/15 03:56:54;;;;;;;5.10;4.20;;;5.30;99.90;;;;;;5069134;28;20279;-76
2021/10/15 03:59:21;;;;;;;7.20;4.55;;;5.30;99.90;;;;;;5063847;28;20692;-78
2021/10/15 04:01:48;;;;;;;5.20;3.92;;;5.20;99.90;;;;;;5071872;28;20204;-78
2021/10/15 04:04:15;;;;;;;5.32;4.20;;;5.20;99.90;;;;;;5070919;28;20325;-78
2021/10/15 04:06:42;;;;;;;4.53;4.05;;;5.20;99.90;;;;;;5063212;28;20299;-77
2021/10/15 04:09:09;;;;;;;6.10;4.30;;;5.10;99.90;;;;;;5062183;28;20667;-78
2021/10/15 04:11:36;;;;;;;6.15;4.35;;;5.10;99.90;;;;;;5068559;28;20208;-77
2021/10/15 04:14:04;;;;;;;5.50;4.03;;;5.10;99.90;;;;;;5065056;28;20323;-77
2021/10/15 04:16:32;;;;;;;8.75;5.80;;;5.10;99.90;;;;;;5070363;28;20613;-77
2021/10/15 04:18:59;;;;;;;5.88;4.57;;;5.10;99.90;;;;;;5066203;28;20216;-77
2021/10/15 04:21:26;;;;;;;4.97;4.47;;;5.00;99.90;;;;;;5061256;28;20210;-78
2021/10/15 04:23:53;;;;;;;4.80;3.95;;;5.00;99.90;;;;;;5060774;28;20228;-78
2021/10/15 04:26:20;;;;;;;4.60;3.95;;;5.00;99.90;;;;;;5061204;28;20280;-79
2021/10/15 04:28:47;;;;;;;5.28;4.50;;;5.10;99.90;;;;;;5063523;28;20215;-78
2021/10/15 04:31:16;;;;;;;5.32;4.60;;;5.00;99.90;;;;;;5074349;28;20204;-77
2021/10/15 04:33:43;;;;;;;8.63;4.18;;;5.00;99.90;;;;;;5069872;28;20227;-78
2021/10/15 04:36:10;;;;;;;6.70;4.35;;;5.00;99.90;;;;;;5065607;28;20276;-79
2021/10/15 04:38:37;;;;;;;7.47;4.47;;;5.00;99.90;;;;;;5062685;28;20282;-77
2021/10/15 04:41:04;;;;;;;6.55;4.68;;;5.00;99.90;;;;;;5063437;28;20260;-77
2021/10/15 04:43:31;;;;;;;5.90;4.70;;;5.00;99.90;;;;;;5059136;28;20204;-79
2021/10/15 04:45:58;;;;;;;7.10;4.80;;;4.90;99.90;;;;;;5059558;28;20208;-78
2021/10/15 04:48:26;;;;;;;6.57;5.53;;;4.90;99.90;;;;;;5061556;28;20212;-77
2021/10/15 04:50:53;;;;;;;7.07;5.15;;;4.90;99.90;;;;;;5055117;28;20219;-77
2021/10/15 04:53:20;;;;;;;7.82;5.10;;;4.90;99.90;;;;;;5054950;28;20226;-77
2021/10/15 04:55:46;;;;;;;10.30;5.07;;;4.90;99.90;;;;;;5061565;28;20258;-77
2021/10/15 04:58:13;;;;;;;9.43;5.55;;;4.90;99.90;;;;;;5072013;28;20280;-76
2021/10/15 05:00:40;;;;;;;6.45;5.13;;;4.90;99.90;;;;;;5065713;28;20213;-77
2021/10/15 05:03:07;;;;;;;8.57;6.20;;;4.90;99.90;;;;;;5055580;28;20579;-79
2021/10/15 05:05:35;;;;;;;9.73;6.13;;;5.00;99.90;;;;;;5059791;28;20217;-77
2021/10/15 05:08:04;;;;;;;7.35;6.20;;;5.00;99.90;;;;;;5072840;28;20235;-77
2021/10/15 05:10:31;;;;;;;8.27;6.15;;;5.00;99.90;;;;;;5073122;28;20233;-78
2021/10/15 05:12:58;;;;;;;8.18;6.45;;;5.00;99.90;;;;;;5069278;28;20303;-78
2021/10/15 05:15:25;;;;;;;8.02;6.38;;;5.00;99.90;;;;;;5056438;28;20262;-79
2021/10/15 05:17:52;;;;;;;11.52;7.47;;;5.10;99.90;;;;;;5054435;28;20216;-77
2021/10/15 05:20:21;;;;;;;8.45;6.65;;;5.10;99.90;;;;;;5057247;28;20669;-78
2021/10/15 05:22:49;;;;;;;10.57;7.75;;;5.10;99.90;;;;;;5076169;28;20183;-76
2021/10/15 05:25:17;;;;;;;9.73;6.35;;;5.10;99.90;;;;;;5052929;28;20299;-80
2021/10/15 05:27:44;;;;;;;7.60;6.55;;;5.20;99.90;;;;;;5034635;28;20676;-77
2021/10/15 05:30:12;;;;;;;9.88;6.40;;;5.20;99.90;;;;;;5046013;28;20216;-77
2021/10/15 05:32:39;;;;;;;8.18;6.50;;;5.40;99.90;;;;;;5052829;28;20298;-77
2021/10/15 05:35:08;;;;;;;6.75;5.88;;;5.40;99.90;;;;;;5054804;28;20259;-79
2021/10/15 05:37:35;;;;;;;9.95;6.43;;;5.40;99.90;;;;;;5050029;28;20672;-79
2021/10/15 05:40:04;;;;;;;9.00;6.70;;;5.40;99.90;;;;;;5060674;28;20722;-77
2021/10/15 05:42:31;;;;;;;8.52;6.35;;;5.40;99.90;;;;;;5053367;28;20197;-78
2021/10/15 05:44:58;;;;;;;11.57;6.60;;;5.40;99.90;;;;;;5054483;28;20615;-78
2021/10/15 05:47:26;;;;;;;9.40;6.15;;;5.40;99.90;;;;;;5059433;28;20272;-79
2021/10/15 05:49:52;;;;;;;10.35;6.18;;;5.40;99.90;;;;;;5077162;28;20217;-77
2021/10/15 05:52:28;;;;;;;8.93;6.38;;;5.50;99.90;;;;;;5093217;28;20269;-78
2021/10/15 05:54:59;;;;;;;11.05;6.35;;;5.50;99.90;;;;;;5061442;28;20238;-79
2021/10/15 06:00:12;;;;;;;10.98;7.43;;;5.50;99.90;;;;;;5068909;28;20640;-77
2021/10/15 06:02:43;;;;;;;8.38;6.75;;;5.70;99.90;;;;;;5064445;28;20212;-77
2021/10/15 06:16:14;;;;;;;13.80;8.55;;;5.80;99.90;;;;;;5058041;28;20203;-78
2021/10/15 06:18:45;;;;;;;12.02;9.13;;;5.90;99.90;;;;;;5059442;28;20205;-78
2021/10/15 06:21:12;;;;;;;12.75;8.10;;;5.90;99.90;;;;;;5063209;28;20205;-79
2021/10/15 06:23:39;;;;;;;13.98;9.52;;;6.00;99.90;;;;;;5045165;28;20710;-80
2021/10/15 06:26:06;;;;;;;11.20;8.90;;;6.00;99.90;;;;;;5044202;28;20211;-82
2021/10/15 06:28:34;;;;;;;11.60;9.57;;;6.00;99.90;;;;;;5042696;28;20281;-78
2021/10/15 06:31:01;;;;;;;13.18;10.07;;;6.10;99.90;;;;;;5043306;28;20224;-79
2021/10/15 06:33:28;;;;;;;12.80;9.88;;;6.10;99.90;;;;;;5049616;28;20277;-79
2021/10/15 06:35:55;;;;;;;13.07;10.45;;;6.30;99.90;;;;;;5048443;28;20245;-80
2021/10/15 06:38:22;;;;;;;13.88;10.35;;;6.40;99.90;;;;;;5046428;28;20241;-81
2021/10/15 06:40:49;;;;;;;12.63;10.50;;;6.40;99.90;;;;;;5045099;28;20215;-80
2021/10/15 06:43:15;;;;;;;18.00;10.88;;;6.40;99.90;;;;;;5047918;28;20206;-79
2021/10/15 06:45:44;;;;;;;13.95;10.70;;;6.50;99.90;;;;;;5039795;28;20573;-81
2021/10/15 06:48:10;;;;;;;13.80;9.60;;;6.50;99.90;;;;;;5039732;28;20282;-80
2021/10/15 06:50:37;;;;;;;11.93;9.65;;;6.50;99.90;;;;;;5039012;28;20218;-80
2021/10/15 06:53:08;;;;;;;14.27;9.70;;;6.50;99.90;;;;;;5039732;28;20713;-80
2021/10/15 06:55:35;;;;;;;11.75;9.10;;;6.60;99.90;;;;;;5039181;28;20241;-80
2021/10/15 06:58:03;;;;;;;11.25;9.70;;;6.70;99.90;;;;;;5040131;28;20210;-79
2021/10/15 07:00:30;;;;;;;13.10;9.85;;;6.60;99.90;;;;;;5040569;28;20292;-79
2021/10/15 07:02:58;;;;;;;13.35;9.18;;;6.70;99.90;;;;;;5041199;28;20221;-80
2021/10/15 07:05:25;;;;;;;13.30;9.32;;;6.70;99.90;;;;;;5049515;28;20254;-78
2021/10/15 07:07:52;;;;;;;11.65;9.40;;;6.70;99.90;;;;;;5055843;28;20219;-79
2021/10/15 07:10:19;;;;;;;9.68;8.45;;;6.80;99.90;;;;;;5055363;28;20234;-80
2021/10/15 07:12:46;;;;;;;11.57;9.15;;;6.80;99.90;;;;;;5071265;28;20280;-77
2021/10/15 07:15:16;;;;;;;9.90;8.65;;;6.90;99.90;;;;;;5076771;28;20216;-78
2021/10/15 07:17:43;;;;;;;11.07;8.23;;;6.90;99.90;;;;;;5064781;28;20214;-79
2021/10/15 07:20:12;;;;;;;10.18;8.65;;;7.00;99.90;;;;;;5073882;28;20272;-79
2021/10/15 07:22:39;;;;;;;10.80;8.55;;;7.00;99.90;;;;;;5077518;28;20199;-77
2021/10/15 07:25:07;;;;;;;10.13;8.35;;;7.10;99.90;;;;;;5076084;28;20483;-77
2021/10/15 07:27:35;;;;;;;13.65;8.80;;;7.20;99.90;;;;;;5075138;28;20214;-77
2021/10/15 07:30:04;;;;;;;9.90;7.68;;;7.30;99.90;;;;;;5066328;28;20214;-78
2021/10/15 07:32:31;;;;;;;8.80;7.90;;;7.30;99.90;;;;;;5058182;28;20268;-75
2021/10/15 07:34:58;;;;;;;8.18;7.38;;;7.40;99.90;;;;;;5058371;28;20237;-77
2021/10/15 07:37:26;;;;;;;8.40;7.50;;;7.40;99.90;;;;;;5057578;28;20214;-78
2021/10/15 07:39:53;;;;;;;8.52;6.38;;;7.40;99.00;;;;;;5056350;28;20209;-77
2021/10/15 07:42:20;;;;;;;7.20;6.50;;;7.50;99.50;;;;;;5056810;28;20244;-77
2021/10/15 07:44:47;;;;;;;9.68;6.20;;;7.70;98.20;;;;;;5056263;28;20240;-77
2021/10/15 07:47:13;;;;;;;8.15;6.45;;;7.80;96.70;;;;;;5057684;28;20658;-79
2021/10/15 07:49:40;;;;;;;8.02;6.65;;;8.00;95.50;;;;;;5067247;28;20209;-76
2021/10/15 07:52:07;;;;;;;6.32;5.72;;;8.10;93.50;;;;;;5073419;28;20293;-77
2021/10/15 07:54:36;;;;;;;8.90;6.70;;;8.20;92.10;;;;;;5055722;28;20600;-78
2021/10/15 07:57:04;;;;;;;7.38;6.20;;;8.30;91.00;;;;;;5057695;28;20216;-77
2021/10/15 07:59:31;;;;;;;7.97;6.47;;;8.50;90.10;;;;;;5056216;28;20302;-78
2021/10/15 08:01:58;;;;;;;6.50;5.90;;;8.50;87.30;;;;;;5056916;28;20220;-77
2021/10/15 08:04:25;;;;;;;8.93;6.70;;;8.60;85.80;;;;;;5060211;28;20222;-76
2021/10/15 08:06:52;;;;;;;9.65;6.55;;;8.60;84.80;;;;;;5075918;28;20213;-77
2021/10/15 08:09:19;;;;;;;8.07;6.20;;;8.60;84.50;;;;;;5073404;28;20269;-78
2021/10/15 08:11:47;;;;;;;6.88;5.63;;;8.70;84.60;;;;;;5057635;28;20278;-78
2021/10/15 08:14:14;;;;;;;8.68;6.32;;;8.70;84.60;;;;;;5060355;28;20226;-77
2021/10/15 08:16:40;;;;;;;9.10;6.03;;;8.70;84.60;;;;;;5060457;28;20194;-77
2021/10/15 08:19:07;;;;;;;7.13;6.03;;;8.70;84.10;;;;;;5057961;28;20693;-79
2021/10/15 08:21:34;;;;;;;6.95;6.25;;;8.80;84.50;;;;;;5057560;28;20214;-76
2021/10/15 08:24:01;;;;;;;8.52;6.90;;;9.00;83.00;;;;;;5057780;28;20249;-76
2021/10/15 08:26:28;;;;;;;7.97;6.05;;;9.10;80.60;;;;;;5056500;28;20269;-78
2021/10/15 08:28:59;;;;;;;9.13;7.05;;;9.20;79.60;;;;;;5058988;28;20633;-77
2021/10/15 08:31:27;;;;;;;10.20;7.63;;;9.30;78.50;;;;;;5060237;28;20206;-79
2021/10/15 08:33:53;;;;;;;8.98;7.40;;;9.40;78.40;;;;;;5057615;28;20233;-79
2021/10/15 08:36:22;;;;;;;7.97;7.18;;;9.40;76.90;;;;;;5057735;28;20218;-79
2021/10/15 08:38:49;;;;;;;10.00;6.80;;;9.60;76.90;;;;;;5056312;28;20246;-77
2021/10/15 08:41:20;;;;;;;7.88;6.57;;;9.70;76.20;;;;;;5055143;28;20212;-77
2021/10/15 08:43:47;;;;;;;7.68;6.88;;;9.80;76.30;;;;;;5056255;28;20345;-76
2021/10/15 08:46:16;;;;;;;7.13;6.28;;;10.00;73.40;;;;;;5058469;28;20190;-76
2021/10/15 08:48:43;;;;;;;11.68;6.50;;;10.10;72.30;;;;;;5068583;28;20574;-82
2021/10/15 08:51:11;;;;;;;8.68;6.78;;;10.20;71.50;;;;;;5072470;28;20231;-82
2021/10/15 08:53:49;;;;;;;6.75;6.05;;;10.40;71.50;;;;;;5071758;28;20257;-79
2021/10/15 08:56:18;;;;;;;8.35;6.50;;;10.40;69.30;;;;;;5076975;28;20230;-82
2021/10/15 08:58:47;;;;;;;8.27;6.30;;;10.50;68.20;;;;;;5074918;28;20204;-85
2021/10/15 09:01:15;;;;;;;9.20;6.57;;;10.60;68.10;;;;;;5075675;28;20209;-80
2021/10/15 09:03:42;;;;;;;8.52;6.40;;;10.60;67.90;;;;;;5064961;28;20214;-80
2021/10/15 09:06:11;;;;;;;10.43;6.60;;;10.70;67.20;;;;;;5062376;28;20214;-80
2021/10/15 09:08:48;;;;;;;7.65;6.20;;;10.80;66.50;;;;;;5058312;28;20262;-80
2021/10/15 09:11:30;;;;;;;7.57;6.25;;;10.90;65.90;;;;;;5047777;28;20240;-79
2021/10/15 09:14:09;;;;;;;6.50;5.90;;;11.10;65.70;;;;;;5057383;28;20318;-80
2021/10/15 09:17:02;;;;;;;7.28;6.30;;;11.10;63.80;;;;;;5059345;28;20246;-80
2021/10/15 09:19:31;;;;;;;10.93;6.80;;;11.20;63.50;;;;;;5071075;28;20547;-80
2021/10/15 09:22:14;;;;;;;7.35;6.60;;;11.40;62.90;;;;;;5065845;28;20291;-81
2021/10/15 09:24:43;;;;;;;12.25;6.28;;;11.50;62.20;;;;;;5078817;28;20286;-80
2021/10/15 09:27:32;;;;;;;8.20;6.00;;;11.60;62.40;;;;;;5062567;28;20677;-79
2021/10/15 09:30:01;;;;;;;6.30;5.68;;;11.70;61.60;;;;;;5034732;28;20209;-80
2021/10/15 09:32:33;;;;;;;8.75;6.57;;;11.80;61.60;;;;;;5038346;28;20276;-79
2021/10/15 09:35:01;;;;;;;8.18;6.10;;;12.00;60.70;;;;;;5056497;28;20324;-79
2021/10/15 09:37:30;;;;;;;7.75;5.97;;;12.10;60.60;;;;;;5059162;28;20215;-79
2021/10/15 09:42:49;;;;;;;7.00;5.75;;;12.30;58.60;;;;;;5065005;28;20231;-80
2021/10/15 09:45:19;;;;;;;5.97;5.40;;;12.30;58.00;;;;;;5065552;28;20414;-79
2021/10/15 09:47:48;;;;;;;7.43;5.55;;;12.40;57.70;;;;;;5065809;28;20630;-80
2021/10/15 09:50:17;;;;;;;5.93;5.32;;;12.40;57.00;;;;;;5058178;28;20209;-80
2021/10/15 09:52:46;;;;;;;6.50;5.90;;;12.50;56.80;;;;;;5059838;28;20209;-80
2021/10/15 09:55:18;;;;;;;8.73;6.22;;;12.50;56.30;;;;;;5059635;28;20236;-80
2021/10/15 09:57:47;;;;;;;6.22;5.63;;;12.50;56.40;;;;;;5063789;28;20380;-80
2021/10/15 10:00:16;;;;;;;7.93;5.65;;;12.60;56.60;;;;;;5060879;28;20689;-80
2021/10/15 10:02:43;;;;;;;6.30;5.75;;;12.80;56.60;;;;;;5059242;28;20215;-79
2021/10/15 10:05:13;;;;;;;7.30;6.35;;;13.00;55.50;;;;;;5060727;28;20221;-80
2021/10/15 10:07:42;;;;;;;6.93;6.25;;;13.00;55.20;;;;;;5072111;28;20235;-80
2021/10/15 10:10:11;;;;;;;7.10;5.93;;;13.10;55.00;;;;;;5054823;28;20199;-79
2021/10/15 10:12:39;;;;;;;6.75;6.07;;;13.20;54.90;;;;;;5047135;28;20231;-79
2021/10/15 10:15:08;;;;;;;7.00;5.90;;;13.50;53.80;;;;;;5068610;28;20225;-80
2021/10/15 10:17:40;;;;;;;9.75;6.20;;;13.80;52.80;;;;;;5060319;28;20278;-79
2021/10/15 10:20:13;;;;;;;8.02;6.57;;;14.00;52.00;;;;;;5062537;28;20234;-79
2021/10/15 10:22:49;;;;;;;8.35;6.22;;;13.90;51.30;;;;;;5057769;28;20203;-79
2021/10/15 10:25:24;;;;;;;7.93;6.13;;;13.80;51.60;;;;;;5062601;28;20742;-80
2021/10/15 10:27:53;;;;;;;8.45;6.05;;;13.80;51.80;;;;;;5068419;28;20209;-76
2021/10/15 10:30:36;;;;;;;6.50;5.35;;;14.00;50.20;;;;;;5073883;28;20206;-81
2021/10/15 10:33:04;;;;;;;5.70;5.07;;;14.10;48.90;;;;;;5064326;28;20216;-79
2021/10/15 10:35:33;;;;;;;5.85;5.25;;;14.00;48.40;;;;;;5070978;28;20214;-83
2021/10/15 10:38:36;;;;;;;7.18;5.90;;;14.00;48.40;;;;;;5062395;28;20199;-85
2021/10/15 10:41:18;;;;;;;6.28;5.00;;;14.00;49.60;;;;;;5041814;28;20211;-81
2021/10/15 10:44:21;;;;;;;8.65;5.53;;;14.30;48.60;;;;;;5052490;28;20736;-81
2021/10/15 10:47:22;;;;;;;5.22;4.75;;;14.60;48.50;;;;;;5068634;28;20262;-80
2021/10/15 10:50:11;;;;;;;8.38;5.40;;;14.80;46.10;;;;;;5022182;28;20214;-80
2021/10/15 10:53:00;;;;;;;6.82;5.85;;;14.90;46.30;;;;;;5022727;28;20302;-82
2021/10/15 10:55:33;;;;;;;6.20;5.22;;;15.10;46.80;;;;;;4999923;28;20230;-82
2021/10/15 10:58:00;;;;;;;4.82;4.35;;;15.20;46.70;;;;;;5000964;28;20224;-81
2021/10/15 11:00:30;;;;;;;7.97;5.25;;;15.20;44.40;;;;;;5019614;28;20291;-81
2021/10/15 11:02:59;;;;;;;5.32;4.15;;;15.20;44.80;;;;;;5033007;28;20188;-82
2021/10/15 11:05:33;;;;;;;7.70;4.72;;;15.30;44.40;;;;;;5038378;28;20287;-83
2021/10/15 11:08:32;;;;;;;5.80;4.50;;;15.10;44.30;;;;;;5028504;28;20217;-81
2021/10/15 11:11:44;;;;;;;5.23;4.80;;;15.30;44.70;;;;;;5023561;28;20500;-81
2021/10/15 11:14:51;;;;;;;5.17;4.57;;;15.50;44.60;;;;;;5024244;28;20528;-82
2021/10/15 11:17:19;;;;;;;6.00;5.13;;;15.50;44.60;;;;;;5034429;28;20419;-81
2021/10/15 11:19:46;;;;;;;8.70;5.40;;;15.60;44.70;;;;;;5034334;28;20423;-81
2021/10/15 11:22:14;;;;;;;7.43;5.20;;;15.60;44.70;;;;;;5078070;28;20473;-82
2021/10/15 11:24:55;;;;;;;6.63;5.80;;;15.70;44.80;;;;;;5066447;28;20479;-82
2021/10/15 11:27:22;;;;;;;6.37;5.27;;;15.70;44.80;;;;;;5062487;28;20462;-82
2021/10/15 11:29:50;;;;;;;6.87;5.03;;;15.80;44.90;;;;;;5062367;28;20461;-82
2021/10/15 11:32:29;;;;;;;6.23;5.33;;;15.80;44.90;;;;;;5065731;28;20456;-82
2021/10/15 11:35:21;;;;;;;6.00;5.30;;;15.80;44.90;;;;;;5062848;28;20529;-82
2021/10/15 11:38:03;;;;;;;6.90;5.60;;;15.90;45.00;;;;;;5071177;28;20427;-83
2021/10/15 11:40:35;;;;;;;7.57;5.83;;;15.80;44.90;;;;;;5078843;28;20445;-83
2021/10/15 11:43:24;;;;;;;7.70;5.70;;;15.80;45.60;;;;;;5071398;28;20490;-82
2021/10/15 11:45:53;;;;;;;6.70;5.50;;;15.80;44.90;;;;;;5068049;28;20838;-83
2021/10/15 11:48:22;;;;;;;5.33;4.83;;;15.90;45.00;;;;;;5077296;28;20435;-82
2021/10/15 11:50:52;;;;;;;6.90;5.30;;;16.00;44.30;;;;;;5077697;28;20449;-82
2021/10/15 11:53:22;;;;;;;8.87;5.80;;;16.20;44.20;;;;;;5078421;28;20446;-83
2021/10/15 11:55:52;;;;;;;5.90;4.97;;;16.20;42.70;;;;;;5076312;28;20468;-83
2021/10/15 11:58:31;;;;;;;5.20;4.70;;;15.80;43.20;;;;;;5062302;28;20444;-83
2021/10/15 12:01:09;;;;;;;6.93;5.60;;;15.70;43.70;;;;;;5064298;28;20431;-83
2021/10/15 12:03:38;;;;;;;6.60;5.00;;;15.70;44.80;;;;;;5061020;28;20220;-83
2021/10/15 12:06:30;;;;;;;5.32;4.82;;;15.50;44.60;;;;;;5061781;28;20458;-82
2021/10/15 12:09:00;;;;;;;6.28;5.35;;;15.40;44.50;;;;;;5044300;28;20620;-81
2021/10/15 12:11:43;;;;;;;6.28;4.80;;;15.40;44.50;;;;;;5060421;28;20265;-82
2021/10/15 12:14:12;;;;;;;6.10;5.50;;;15.60;44.70;;;;;;5060208;28;20223;-82
2021/10/15 12:16:48;;;;;;;4.87;4.37;;;15.60;44.70;;;;;;5060970;28;20486;-82
2021/10/15 12:19:22;;;;;;;4.93;4.33;;;15.60;44.60;;;;;;5072610;28;20464;-82
2021/10/15 12:21:50;;;;;;;6.43;4.60;;;15.60;43.20;;;;;;5076043;28;20469;-82
2021/10/15 12:24:27;;;;;;;5.57;5.07;;;15.60;43.80;;;;;;5074396;28;20487;-82
2021/10/15 12:27:08;;;;;;;4.27;3.80;;;15.50;42.70;;;;;;5071855;28;20432;-82
2021/10/15 12:29:38;;;;;;;6.37;5.00;;;15.40;42.80;;;;;;5062231;28;20499;-81
2021/10/15 12:32:17;;;;;;;5.40;4.63;;;15.50;43.30;;;;;;5066558;28;20469;-81
2021/10/15 12:35:10;;;;;;;5.93;4.20;;;15.60;43.10;;;;;;5066283;28;20992;-82
2021/10/15 12:37:46;;;;;;;7.03;4.47;;;15.70;42.30;;;;;;5060011;28;20555;-81
2021/10/15 12:40:29;;;;;;;4.53;3.83;;;15.60;42.70;;;;;;5060562;28;20226;-82
2021/10/15 12:43:11;;;;;;;5.10;4.60;;;15.80;42.70;;;;;;5068985;28;20446;-84
2021/10/15 12:45:41;;;;;;;5.93;4.30;;;15.80;42.20;;;;;;5061809;28;20452;-81
2021/10/15 12:48:09;;;;;;;5.50;4.60;;;15.90;42.50;;;;;;5062467;28;20439;-82
2021/10/15 12:50:38;;;;;;;5.40;4.30;;;16.00;42.50;;;;;;5061203;28;20513;-83
2021/10/15 12:53:13;;;;;;;5.20;4.40;;;16.00;42.80;;;;;;5058448;28;20528;-83
2021/10/15 12:55:49;;;;;;;4.93;4.30;;;16.20;41.90;;;;;;5073188;28;20490;-80
2021/10/15 12:58:18;;;;;;;5.00;4.43;;;16.30;43.10;;;;;;5077358;28;20468;-81
2021/10/15 13:00:50;;;;;;;5.63;4.00;;;16.60;40.70;;;;;;5071113;28;20435;-83
2021/10/15 13:03:18;;;;;;;7.70;5.10;;;16.40;41.50;;;;;;5063689;28;20459;-83
2021/10/15 13:05:44;;;;;;;5.70;4.20;;;16.30;41.40;;;;;;5062553;28;20463;-83
2021/10/15 13:08:14;;;;;;;4.97;4.17;;;16.40;42.90;;;;;;5062029;28;20459;-82
2021/10/15 13:10:41;;;;;;;5.77;4.03;;;16.50;42.00;;;;;;5061291;28;20518;-82
2021/10/15 13:13:08;;;;;;;5.83;4.23;;;16.40;41.00;;;;;;5060045;28;20456;-82
2021/10/15 13:15:36;;;;;;;6.63;4.00;;;16.30;40.90;;;;;;5061824;28;20567;-85
2021/10/15 13:18:03;;;;;;;4.87;4.40;;;16.10;41.90;;;;;;5062613;28;20470;-82
2021/10/15 13:20:30;;;;;;;4.40;4.00;;;16.10;42.00;;;;;;5061380;28;20447;-82
2021/10/15 13:25:40;;;;;;;4.80;3.80;;;16.10;43.10;;;;;;5062605;28;20432;-83